Aviation Digital Data Service (ADDS)

Output produced by METARs form (0820 UTC 27 January 2015)
found at http://www.aviationweather.gov/adds/metars/
 
KEWR 270528Z 2706/2812 36023G34KT 1/2SM SN FZFG OVC008 
     TEMPO 2708/2710 1/4SM +SN FZFG BLSN VV005 
     FM271500 34022G33KT 1/2SM SN FZFG BLSN OVC008 
     FM272100 34018G30KT 2SM -SN BLSN OVC020 
     FM280100 33015G26KT 2SM -SHSN OVC035 
     FM280400 32013G21KT P6SM SCT040 SCT100